sensor_id;sensor_type;location;lat;lon;timestamp;P1;durP1;ratioP1;P2;durP2;ratioP2
22894;SDS011;11614;52.494;6.976;2022-12-18T00:01:35;78.13;;;23.90;;
22894;SDS011;11614;52.494;6.976;2022-12-18T00:04:02;73.00;;;20.80;;
22894;SDS011;11614;52.494;6.976;2022-12-18T00:06:28;57.13;;;15.87;;
22894;SDS011;11614;52.494;6.976;2022-12-18T00:08:55;59.77;;;15.33;;
22894;SDS011;11614;52.494;6.976;2022-12-18T00:11:22;63.33;;;18.97;;
22894;SDS011;11614;52.494;6.976;2022-12-18T00:13:49;59.80;;;17.23;;
22894;SDS011;11614;52.494;6.976;2022-12-18T00:16:16;47.20;;;14.33;;
22894;SDS011;11614;52.494;6.976;2022-12-18T00:18:45;72.97;;;18.70;;
22894;SDS011;11614;52.494;6.976;2022-12-18T00:21:14;56.27;;;16.20;;
22894;SDS011;11614;52.494;6.976;2022-12-18T00:23:41;125.67;;;34.07;;
22894;SDS011;11614;52.494;6.976;2022-12-18T00:26:10;37.80;;;10.17;;
22894;SDS011;11614;52.494;6.976;2022-12-18T00:28:36;78.87;;;23.27;;
22894;SDS011;11614;52.494;6.976;2022-12-18T00:31:06;72.60;;;21.27;;
22894;SDS011;11614;52.494;6.976;2022-12-18T00:33:32;43.47;;;12.70;;
22894;SDS011;11614;52.494;6.976;2022-12-18T00:36:02;51.93;;;18.30;;
22894;SDS011;11614;52.494;6.976;2022-12-18T00:38:28;48.90;;;15.23;;
22894;SDS011;11614;52.494;6.976;2022-12-18T00:40:54;54.67;;;18.47;;
22894;SDS011;11614;52.494;6.976;2022-12-18T00:43:20;49.43;;;15.27;;
22894;SDS011;11614;52.494;6.976;2022-12-18T00:45:46;67.93;;;19.63;;
22894;SDS011;11614;52.494;6.976;2022-12-18T00:48:12;34.00;;;10.03;;
22894;SDS011;11614;52.494;6.976;2022-12-18T00:50:38;36.50;;;11.07;;
22894;SDS011;11614;52.494;6.976;2022-12-18T00:53:04;58.53;;;16.83;;
22894;SDS011;11614;52.494;6.976;2022-12-18T00:55:31;66.43;;;19.77;;
22894;SDS011;11614;52.494;6.976;2022-12-18T00:57:57;62.73;;;18.87;;
22894;SDS011;11614;52.494;6.976;2022-12-18T01:00:23;57.93;;;18.20;;
22894;SDS011;11614;52.494;6.976;2022-12-18T01:02:49;36.90;;;9.97;;
22894;SDS011;11614;52.494;6.976;2022-12-18T01:05:15;69.87;;;20.57;;
22894;SDS011;11614;52.494;6.976;2022-12-18T01:07:41;56.57;;;18.23;;
22894;SDS011;11614;52.494;6.976;2022-12-18T01:10:08;15.13;;;4.43;;
22894;SDS011;11614;52.494;6.976;2022-12-18T01:12:35;64.90;;;17.50;;
22894;SDS011;11614;52.494;6.976;2022-12-18T01:15:01;64.00;;;18.80;;
22894;SDS011;11614;52.494;6.976;2022-12-18T01:17:27;53.43;;;17.57;;
22894;SDS011;11614;52.494;6.976;2022-12-18T01:19:53;63.27;;;19.60;;
22894;SDS011;11614;52.494;6.976;2022-12-18T01:22:19;60.03;;;19.77;;
22894;SDS011;11614;52.494;6.976;2022-12-18T01:24:45;68.07;;;18.70;;
22894;SDS011;11614;52.494;6.976;2022-12-18T01:27:11;43.17;;;11.10;;
22894;SDS011;11614;52.494;6.976;2022-12-18T01:29:37;59.37;;;18.97;;
22894;SDS011;11614;52.494;6.976;2022-12-18T01:32:03;42.83;;;14.90;;
22894;SDS011;11614;52.494;6.976;2022-12-18T01:34:29;61.53;;;17.50;;
22894;SDS011;11614;52.494;6.976;2022-12-18T01:36:55;65.13;;;20.10;;
22894;SDS011;11614;52.494;6.976;2022-12-18T01:39:21;62.27;;;18.60;;
22894;SDS011;11614;52.494;6.976;2022-12-18T01:41:47;64.53;;;20.73;;
22894;SDS011;11614;52.494;6.976;2022-12-18T01:47:32;48.07;;;16.43;;
22894;SDS011;11614;52.494;6.976;2022-12-18T01:50:00;47.13;;;14.27;;
22894;SDS011;11614;52.494;6.976;2022-12-18T01:52:29;63.47;;;20.77;;
22894;SDS011;11614;52.494;6.976;2022-12-18T01:54:57;74.37;;;24.30;;
22894;SDS011;11614;52.494;6.976;2022-12-18T01:57:23;65.30;;;23.50;;
22894;SDS011;11614;52.494;6.976;2022-12-18T01:59:50;58.37;;;18.13;;
22894;SDS011;11614;52.494;6.976;2022-12-18T02:02:17;67.60;;;21.80;;
22894;SDS011;11614;52.494;6.976;2022-12-18T02:04:43;42.77;;;14.80;;
22894;SDS011;11614;52.494;6.976;2022-12-18T02:09:46;43.93;;;16.80;;
22894;SDS011;11614;52.494;6.976;2022-12-18T02:12:19;55.53;;;18.17;;
22894;SDS011;11614;52.494;6.976;2022-12-18T02:14:49;35.17;;;11.97;;
22894;SDS011;11614;52.494;6.976;2022-12-18T02:17:24;55.20;;;15.60;;
22894;SDS011;11614;52.494;6.976;2022-12-18T02:27:23;62.60;;;21.27;;
22894;SDS011;11614;52.494;6.976;2022-12-18T02:29:50;35.80;;;12.27;;
22894;SDS011;11614;52.494;6.976;2022-12-18T02:32:22;47.37;;;15.67;;
22894;SDS011;11614;52.494;6.976;2022-12-18T02:34:50;39.13;;;14.80;;
22894;SDS011;11614;52.494;6.976;2022-12-18T02:37:16;54.50;;;16.13;;
22894;SDS011;11614;52.494;6.976;2022-12-18T02:39:44;43.50;;;13.80;;
22894;SDS011;11614;52.494;6.976;2022-12-18T02:42:11;49.50;;;15.80;;
22894;SDS011;11614;52.494;6.976;2022-12-18T02:44:47;45.93;;;14.00;;
22894;SDS011;11614;52.494;6.976;2022-12-18T02:47:14;47.53;;;14.97;;
22894;SDS011;11614;52.494;6.976;2022-12-18T02:57:39;56.53;;;18.27;;
22894;SDS011;11614;52.494;6.976;2022-12-18T03:00:14;32.20;;;9.77;;
22894;SDS011;11614;52.494;6.976;2022-12-18T03:02:44;55.47;;;16.63;;
22894;SDS011;11614;52.494;6.976;2022-12-18T03:07:43;55.23;;;17.13;;
22894;SDS011;11614;52.494;6.976;2022-12-18T03:10:11;45.70;;;15.07;;
22894;SDS011;11614;52.494;6.976;2022-12-18T03:12:40;55.10;;;18.93;;
22894;SDS011;11614;52.494;6.976;2022-12-18T03:15:22;35.37;;;11.30;;
22894;SDS011;11614;52.494;6.976;2022-12-18T03:17:56;23.40;;;8.97;;
22894;SDS011;11614;52.494;6.976;2022-12-18T03:20:23;45.17;;;14.67;;
22894;SDS011;11614;52.494;6.976;2022-12-18T03:22:52;42.90;;;14.00;;
22894;SDS011;11614;52.494;6.976;2022-12-18T03:25:19;46.43;;;14.37;;
22894;SDS011;11614;52.494;6.976;2022-12-18T03:27:47;23.67;;;8.17;;
22894;SDS011;11614;52.494;6.976;2022-12-18T03:30:15;53.57;;;17.30;;
22894;SDS011;11614;52.494;6.976;2022-12-18T03:32:48;46.43;;;14.90;;
22894;SDS011;11614;52.494;6.976;2022-12-18T03:35:21;46.30;;;14.90;;
22894;SDS011;11614;52.494;6.976;2022-12-18T03:37:48;49.60;;;14.47;;
22894;SDS011;11614;52.494;6.976;2022-12-18T03:40:14;42.13;;;13.87;;
22894;SDS011;11614;52.494;6.976;2022-12-18T03:42:47;42.50;;;13.73;;
22894;SDS011;11614;52.494;6.976;2022-12-18T03:45:26;53.07;;;15.57;;
22894;SDS011;11614;52.494;6.976;2022-12-18T03:50:22;48.53;;;14.73;;
22894;SDS011;11614;52.494;6.976;2022-12-18T03:52:53;52.60;;;16.20;;
22894;SDS011;11614;52.494;6.976;2022-12-18T03:55:21;48.13;;;16.13;;
22894;SDS011;11614;52.494;6.976;2022-12-18T03:57:48;30.20;;;11.03;;
22894;SDS011;11614;52.494;6.976;2022-12-18T04:00:15;40.63;;;14.53;;
22894;SDS011;11614;52.494;6.976;2022-12-18T04:02:44;29.53;;;10.47;;
22894;SDS011;11614;52.494;6.976;2022-12-18T04:05:10;46.67;;;15.13;;
22894;SDS011;11614;52.494;6.976;2022-12-18T04:07:36;45.47;;;14.30;;
22894;SDS011;11614;52.494;6.976;2022-12-18T04:10:03;47.43;;;15.37;;
22894;SDS011;11614;52.494;6.976;2022-12-18T04:12:31;27.67;;;9.10;;
22894;SDS011;11614;52.494;6.976;2022-12-18T04:14:57;46.10;;;14.97;;
22894;SDS011;11614;52.494;6.976;2022-12-18T04:17:23;51.03;;;16.20;;
22894;SDS011;11614;52.494;6.976;2022-12-18T04:19:49;37.57;;;13.13;;
22894;SDS011;11614;52.494;6.976;2022-12-18T04:22:15;50.77;;;16.87;;
22894;SDS011;11614;52.494;6.976;2022-12-18T04:24:44;49.03;;;14.30;;
22894;SDS011;11614;52.494;6.976;2022-12-18T04:27:10;44.43;;;14.27;;
22894;SDS011;11614;52.494;6.976;2022-12-18T04:29:36;58.93;;;17.57;;
22894;SDS011;11614;52.494;6.976;2022-12-18T04:32:02;40.03;;;12.63;;
22894;SDS011;11614;52.494;6.976;2022-12-18T04:34:28;42.63;;;13.43;;
22894;SDS011;11614;52.494;6.976;2022-12-18T04:36:54;41.87;;;14.33;;
22894;SDS011;11614;52.494;6.976;2022-12-18T04:39:20;46.93;;;14.30;;
22894;SDS011;11614;52.494;6.976;2022-12-18T04:41:46;34.43;;;12.30;;
22894;SDS011;11614;52.494;6.976;2022-12-18T04:44:12;40.40;;;12.13;;
22894;SDS011;11614;52.494;6.976;2022-12-18T04:46:38;48.40;;;14.37;;
22894;SDS011;11614;52.494;6.976;2022-12-18T04:49:04;41.67;;;14.03;;
22894;SDS011;11614;52.494;6.976;2022-12-18T04:51:30;37.80;;;12.83;;
22894;SDS011;11614;52.494;6.976;2022-12-18T04:53:56;50.37;;;17.63;;
22894;SDS011;11614;52.494;6.976;2022-12-18T04:56:22;41.63;;;13.13;;
22894;SDS011;11614;52.494;6.976;2022-12-18T04:58:48;39.10;;;13.17;;
22894;SDS011;11614;52.494;6.976;2022-12-18T05:01:14;22.17;;;8.20;;
22894;SDS011;11614;52.494;6.976;2022-12-18T05:03:41;34.97;;;11.77;;
22894;SDS011;11614;52.494;6.976;2022-12-18T05:06:07;46.07;;;15.93;;
22894;SDS011;11614;52.494;6.976;2022-12-18T05:08:33;44.67;;;14.50;;
22894;SDS011;11614;52.494;6.976;2022-12-18T05:11:03;26.70;;;9.20;;
22894;SDS011;11614;52.494;6.976;2022-12-18T05:13:30;36.37;;;12.17;;
22894;SDS011;11614;52.494;6.976;2022-12-18T05:15:56;38.80;;;13.20;;
22894;SDS011;11614;52.494;6.976;2022-12-18T05:18:23;40.90;;;12.43;;
22894;SDS011;11614;52.494;6.976;2022-12-18T05:20:49;33.70;;;12.80;;
22894;SDS011;11614;52.494;6.976;2022-12-18T05:23:16;34.13;;;11.27;;
22894;SDS011;11614;52.494;6.976;2022-12-18T05:25:42;31.53;;;11.60;;
22894;SDS011;11614;52.494;6.976;2022-12-18T05:28:08;40.73;;;12.70;;
22894;SDS011;11614;52.494;6.976;2022-12-18T05:30:34;37.53;;;12.33;;
22894;SDS011;11614;52.494;6.976;2022-12-18T05:33:00;36.57;;;12.93;;
22894;SDS011;11614;52.494;6.976;2022-12-18T05:35:25;43.73;;;13.70;;
22894;SDS011;11614;52.494;6.976;2022-12-18T05:37:52;38.40;;;12.70;;
22894;SDS011;11614;52.494;6.976;2022-12-18T05:40:17;34.87;;;10.90;;
22894;SDS011;11614;52.494;6.976;2022-12-18T05:42:43;37.07;;;11.87;;
22894;SDS011;11614;52.494;6.976;2022-12-18T05:45:09;38.80;;;13.10;;
22894;SDS011;11614;52.494;6.976;2022-12-18T05:47:35;26.70;;;10.27;;
22894;SDS011;11614;52.494;6.976;2022-12-18T05:50:01;43.67;;;14.10;;
22894;SDS011;11614;52.494;6.976;2022-12-18T05:52:27;38.33;;;12.60;;
22894;SDS011;11614;52.494;6.976;2022-12-18T05:54:53;33.40;;;12.90;;
22894;SDS011;11614;52.494;6.976;2022-12-18T05:57:19;39.53;;;12.60;;
22894;SDS011;11614;52.494;6.976;2022-12-18T05:59:45;35.67;;;11.20;;
22894;SDS011;11614;52.494;6.976;2022-12-18T06:02:11;37.30;;;12.50;;
22894;SDS011;11614;52.494;6.976;2022-12-18T06:04:36;35.40;;;10.30;;
22894;SDS011;11614;52.494;6.976;2022-12-18T06:07:03;37.33;;;12.80;;
22894;SDS011;11614;52.494;6.976;2022-12-18T06:09:29;33.27;;;10.40;;
22894;SDS011;11614;52.494;6.976;2022-12-18T06:11:55;32.53;;;11.77;;
22894;SDS011;11614;52.494;6.976;2022-12-18T06:14:20;34.67;;;11.60;;
22894;SDS011;11614;52.494;6.976;2022-12-18T06:16:46;43.63;;;13.07;;
22894;SDS011;11614;52.494;6.976;2022-12-18T06:19:15;34.27;;;10.90;;
22894;SDS011;11614;52.494;6.976;2022-12-18T06:21:41;36.07;;;12.27;;
22894;SDS011;11614;52.494;6.976;2022-12-18T06:24:07;30.53;;;11.17;;
22894;SDS011;11614;52.494;6.976;2022-12-18T06:26:33;39.50;;;12.10;;
22894;SDS011;11614;52.494;6.976;2022-12-18T06:28:59;36.10;;;12.83;;
22894;SDS011;11614;52.494;6.976;2022-12-18T06:31:25;34.80;;;12.37;;
22894;SDS011;11614;52.494;6.976;2022-12-18T06:33:51;41.33;;;12.67;;
22894;SDS011;11614;52.494;6.976;2022-12-18T06:36:17;36.37;;;13.03;;
22894;SDS011;11614;52.494;6.976;2022-12-18T06:38:46;37.10;;;11.83;;
22894;SDS011;11614;52.494;6.976;2022-12-18T06:41:13;45.23;;;13.67;;
22894;SDS011;11614;52.494;6.976;2022-12-18T06:43:40;42.27;;;13.93;;
22894;SDS011;11614;52.494;6.976;2022-12-18T06:46:07;40.40;;;13.30;;
22894;SDS011;11614;52.494;6.976;2022-12-18T06:48:33;34.97;;;12.07;;
22894;SDS011;11614;52.494;6.976;2022-12-18T06:50:59;41.50;;;13.80;;
22894;SDS011;11614;52.494;6.976;2022-12-18T06:53:25;34.83;;;12.00;;
22894;SDS011;11614;52.494;6.976;2022-12-18T06:55:51;28.03;;;9.93;;
22894;SDS011;11614;52.494;6.976;2022-12-18T06:58:16;29.13;;;10.13;;
22894;SDS011;11614;52.494;6.976;2022-12-18T07:00:42;33.67;;;10.50;;
22894;SDS011;11614;52.494;6.976;2022-12-18T07:03:08;38.13;;;12.50;;
22894;SDS011;11614;52.494;6.976;2022-12-18T07:05:34;36.93;;;12.07;;
22894;SDS011;11614;52.494;6.976;2022-12-18T07:08:00;34.67;;;11.57;;
22894;SDS011;11614;52.494;6.976;2022-12-18T07:10:26;26.90;;;11.23;;
22894;SDS011;11614;52.494;6.976;2022-12-18T07:12:52;36.03;;;12.20;;
22894;SDS011;11614;52.494;6.976;2022-12-18T07:15:18;35.00;;;11.00;;
22894;SDS011;11614;52.494;6.976;2022-12-18T07:17:44;28.23;;;9.70;;
22894;SDS011;11614;52.494;6.976;2022-12-18T07:20:10;32.23;;;11.23;;
22894;SDS011;11614;52.494;6.976;2022-12-18T07:22:36;27.03;;;10.53;;
22894;SDS011;11614;52.494;6.976;2022-12-18T07:25:02;28.17;;;9.57;;
22894;SDS011;11614;52.494;6.976;2022-12-18T07:27:28;24.07;;;9.13;;
22894;SDS011;11614;52.494;6.976;2022-12-18T07:29:54;30.43;;;9.77;;
22894;SDS011;11614;52.494;6.976;2022-12-18T07:32:20;11.93;;;5.80;;
22894;SDS011;11614;52.494;6.976;2022-12-18T07:34:46;26.40;;;9.37;;
22894;SDS011;11614;52.494;6.976;2022-12-18T07:37:12;29.93;;;9.57;;
22894;SDS011;11614;52.494;6.976;2022-12-18T07:39:37;30.90;;;9.73;;
22894;SDS011;11614;52.494;6.976;2022-12-18T07:42:03;29.87;;;10.07;;
22894;SDS011;11614;52.494;6.976;2022-12-18T07:44:47;31.87;;;11.23;;
22894;SDS011;11614;52.494;6.976;2022-12-18T07:47:13;57.43;;;20.40;;
22894;SDS011;11614;52.494;6.976;2022-12-18T07:49:39;33.93;;;11.27;;
22894;SDS011;11614;52.494;6.976;2022-12-18T07:52:05;31.07;;;11.23;;
22894;SDS011;11614;52.494;6.976;2022-12-18T07:54:30;33.63;;;9.33;;
22894;SDS011;11614;52.494;6.976;2022-12-18T07:56:56;28.60;;;9.93;;
22894;SDS011;11614;52.494;6.976;2022-12-18T07:59:22;38.77;;;10.03;;
22894;SDS011;11614;52.494;6.976;2022-12-18T08:01:48;29.23;;;9.77;;
22894;SDS011;11614;52.494;6.976;2022-12-18T08:04:14;28.13;;;10.30;;
22894;SDS011;11614;52.494;6.976;2022-12-18T08:06:40;31.27;;;10.17;;
22894;SDS011;11614;52.494;6.976;2022-12-18T08:09:06;28.60;;;9.17;;
22894;SDS011;11614;52.494;6.976;2022-12-18T08:11:33;25.20;;;9.57;;
22894;SDS011;11614;52.494;6.976;2022-12-18T08:13:59;27.97;;;9.60;;
22894;SDS011;11614;52.494;6.976;2022-12-18T08:16:25;31.13;;;10.23;;
22894;SDS011;11614;52.494;6.976;2022-12-18T08:18:51;30.77;;;9.90;;
22894;SDS011;11614;52.494;6.976;2022-12-18T08:21:19;25.90;;;9.80;;
22894;SDS011;11614;52.494;6.976;2022-12-18T08:23:48;26.93;;;10.87;;
22894;SDS011;11614;52.494;6.976;2022-12-18T08:26:14;24.20;;;10.00;;
22894;SDS011;11614;52.494;6.976;2022-12-18T08:28:40;28.90;;;9.87;;
22894;SDS011;11614;52.494;6.976;2022-12-18T08:31:07;30.77;;;11.80;;
22894;SDS011;11614;52.494;6.976;2022-12-18T08:33:33;26.10;;;9.97;;
22894;SDS011;11614;52.494;6.976;2022-12-18T08:36:00;28.30;;;10.87;;
22894;SDS011;11614;52.494;6.976;2022-12-18T08:38:26;26.23;;;9.93;;
22894;SDS011;11614;52.494;6.976;2022-12-18T08:41:02;27.03;;;10.80;;
22894;SDS011;11614;52.494;6.976;2022-12-18T08:43:28;29.43;;;10.97;;
22894;SDS011;11614;52.494;6.976;2022-12-18T08:46:13;26.83;;;8.97;;
22894;SDS011;11614;52.494;6.976;2022-12-18T08:48:39;19.87;;;9.07;;
22894;SDS011;11614;52.494;6.976;2022-12-18T08:51:05;25.47;;;11.10;;
22894;SDS011;11614;52.494;6.976;2022-12-18T08:53:31;19.03;;;7.63;;
22894;SDS011;11614;52.494;6.976;2022-12-18T08:55:57;23.90;;;9.97;;
22894;SDS011;11614;52.494;6.976;2022-12-18T08:58:23;17.07;;;5.83;;
22894;SDS011;11614;52.494;6.976;2022-12-18T09:00:50;18.67;;;7.00;;
22894;SDS011;11614;52.494;6.976;2022-12-18T09:03:16;19.23;;;8.10;;
22894;SDS011;11614;52.494;6.976;2022-12-18T09:05:42;17.33;;;8.10;;
22894;SDS011;11614;52.494;6.976;2022-12-18T09:08:09;26.20;;;12.23;;
22894;SDS011;11614;52.494;6.976;2022-12-18T09:10:40;19.63;;;6.93;;
22894;SDS011;11614;52.494;6.976;2022-12-18T09:13:06;18.83;;;8.67;;
22894;SDS011;11614;52.494;6.976;2022-12-18T09:15:32;15.70;;;7.07;;
22894;SDS011;11614;52.494;6.976;2022-12-18T09:17:58;16.40;;;7.30;;
22894;SDS011;11614;52.494;6.976;2022-12-18T09:20:24;17.23;;;8.43;;
22894;SDS011;11614;52.494;6.976;2022-12-18T09:22:53;19.30;;;10.27;;
22894;SDS011;11614;52.494;6.976;2022-12-18T09:25:19;21.10;;;11.57;;
22894;SDS011;11614;52.494;6.976;2022-12-18T09:27:46;16.97;;;7.83;;
22894;SDS011;11614;52.494;6.976;2022-12-18T09:30:13;13.73;;;5.77;;
22894;SDS011;11614;52.494;6.976;2022-12-18T09:32:39;13.20;;;6.30;;
22894;SDS011;11614;52.494;6.976;2022-12-18T09:35:05;12.00;;;5.47;;
22894;SDS011;11614;52.494;6.976;2022-12-18T09:37:31;9.13;;;4.27;;
22894;SDS011;11614;52.494;6.976;2022-12-18T09:39:56;11.20;;;5.23;;
22894;SDS011;11614;52.494;6.976;2022-12-18T09:42:22;14.37;;;7.47;;
22894;SDS011;11614;52.494;6.976;2022-12-18T09:44:49;16.00;;;6.27;;
22894;SDS011;11614;52.494;6.976;2022-12-18T09:49:53;9.70;;;4.13;;
22894;SDS011;11614;52.494;6.976;2022-12-18T09:54:48;13.50;;;5.70;;
22894;SDS011;11614;52.494;6.976;2022-12-18T09:57:20;8.60;;;4.30;;
22894;SDS011;11614;52.494;6.976;2022-12-18T09:59:49;9.27;;;4.53;;
22894;SDS011;11614;52.494;6.976;2022-12-18T10:02:20;9.93;;;4.83;;
22894;SDS011;11614;52.494;6.976;2022-12-18T10:04:48;12.10;;;4.70;;
22894;SDS011;11614;52.494;6.976;2022-12-18T10:07:19;7.20;;;2.97;;
22894;SDS011;11614;52.494;6.976;2022-12-18T10:14:51;11.17;;;5.57;;
22894;SDS011;11614;52.494;6.976;2022-12-18T10:20:00;9.33;;;4.00;;
22894;SDS011;11614;52.494;6.976;2022-12-18T10:24:59;18.40;;;9.03;;
22894;SDS011;11614;52.494;6.976;2022-12-18T10:27:27;13.87;;;6.07;;
22894;SDS011;11614;52.494;6.976;2022-12-18T10:29:54;23.60;;;14.17;;
22894;SDS011;11614;52.494;6.976;2022-12-18T10:32:27;14.20;;;6.53;;
22894;SDS011;11614;52.494;6.976;2022-12-18T10:34:54;27.90;;;16.30;;
22894;SDS011;11614;52.494;6.976;2022-12-18T10:37:22;22.70;;;11.37;;
22894;SDS011;11614;52.494;6.976;2022-12-18T10:40:08;16.53;;;9.87;;
22894;SDS011;11614;52.494;6.976;2022-12-18T10:42:40;19.17;;;9.57;;
22894;SDS011;11614;52.494;6.976;2022-12-18T10:45:14;15.00;;;8.50;;
22894;SDS011;11614;52.494;6.976;2022-12-18T10:47:47;32.20;;;19.33;;
22894;SDS011;11614;52.494;6.976;2022-12-18T10:50:24;12.20;;;6.37;;
22894;SDS011;11614;52.494;6.976;2022-12-18T10:53:01;12.23;;;6.27;;
22894;SDS011;11614;52.494;6.976;2022-12-18T10:55:32;23.07;;;12.50;;
22894;SDS011;11614;52.494;6.976;2022-12-18T11:00:43;12.87;;;6.30;;
22894;SDS011;11614;52.494;6.976;2022-12-18T11:03:28;11.60;;;6.47;;
22894;SDS011;11614;52.494;6.976;2022-12-18T11:06:02;12.87;;;6.67;;
22894;SDS011;11614;52.494;6.976;2022-12-18T11:08:29;9.10;;;5.07;;
22894;SDS011;11614;52.494;6.976;2022-12-18T11:10:56;10.50;;;5.53;;
22894;SDS011;11614;52.494;6.976;2022-12-18T11:13:23;8.97;;;4.67;;
22894;SDS011;11614;52.494;6.976;2022-12-18T11:15:50;9.20;;;4.00;;
22894;SDS011;11614;52.494;6.976;2022-12-18T11:18:37;12.87;;;6.20;;
22894;SDS011;11614;52.494;6.976;2022-12-18T11:21:06;15.93;;;7.83;;
22894;SDS011;11614;52.494;6.976;2022-12-18T11:23:33;11.27;;;6.37;;
22894;SDS011;11614;52.494;6.976;2022-12-18T11:26:03;9.30;;;3.57;;
22894;SDS011;11614;52.494;6.976;2022-12-18T11:28:41;7.80;;;3.97;;
22894;SDS011;11614;52.494;6.976;2022-12-18T11:34:11;10.17;;;4.90;;
22894;SDS011;11614;52.494;6.976;2022-12-18T11:36:51;10.93;;;5.90;;
22894;SDS011;11614;52.494;6.976;2022-12-18T11:39:19;6.13;;;3.90;;
22894;SDS011;11614;52.494;6.976;2022-12-18T11:42:15;10.40;;;4.87;;
22894;SDS011;11614;52.494;6.976;2022-12-18T11:47:48;8.13;;;5.20;;
22894;SDS011;11614;52.494;6.976;2022-12-18T11:50:21;10.83;;;4.73;;
22894;SDS011;11614;52.494;6.976;2022-12-18T11:52:50;9.07;;;3.70;;
22894;SDS011;11614;52.494;6.976;2022-12-18T11:58:07;7.30;;;3.70;;
22894;SDS011;11614;52.494;6.976;2022-12-18T12:00:50;8.77;;;4.03;;
22894;SDS011;11614;52.494;6.976;2022-12-18T12:15:16;7.43;;;3.43;;
22894;SDS011;11614;52.494;6.976;2022-12-18T12:23:19;8.10;;;3.30;;
22894;SDS011;11614;52.494;6.976;2022-12-18T12:25:55;5.27;;;2.73;;
22894;SDS011;11614;52.494;6.976;2022-12-18T12:37:15;5.70;;;2.30;;
22894;SDS011;11614;52.494;6.976;2022-12-18T12:39:44;7.87;;;2.53;;
22894;SDS011;11614;52.494;6.976;2022-12-18T12:42:13;10.30;;;4.50;;
22894;SDS011;11614;52.494;6.976;2022-12-18T12:45:05;7.23;;;2.27;;
22894;SDS011;11614;52.494;6.976;2022-12-18T12:47:33;10.77;;;4.60;;
22894;SDS011;11614;52.494;6.976;2022-12-18T12:50:03;9.90;;;3.17;;
22894;SDS011;11614;52.494;6.976;2022-12-18T12:52:39;10.70;;;4.37;;
22894;SDS011;11614;52.494;6.976;2022-12-18T12:55:13;8.63;;;3.53;;
22894;SDS011;11614;52.494;6.976;2022-12-18T12:57:46;5.47;;;2.80;;
22894;SDS011;11614;52.494;6.976;2022-12-18T13:00:39;9.37;;;4.60;;
22894;SDS011;11614;52.494;6.976;2022-12-18T13:05:53;9.70;;;4.80;;
22894;SDS011;11614;52.494;6.976;2022-12-18T13:08:26;10.03;;;5.00;;
22894;SDS011;11614;52.494;6.976;2022-12-18T13:10:54;10.23;;;4.83;;
22894;SDS011;11614;52.494;6.976;2022-12-18T13:13:47;9.33;;;4.27;;
22894;SDS011;11614;52.494;6.976;2022-12-18T13:16:21;10.70;;;5.30;;
22894;SDS011;11614;52.494;6.976;2022-12-18T13:18:50;13.13;;;6.47;;
22894;SDS011;11614;52.494;6.976;2022-12-18T13:21:29;8.83;;;3.83;;
22894;SDS011;11614;52.494;6.976;2022-12-18T13:24:43;13.93;;;6.80;;
22894;SDS011;11614;52.494;6.976;2022-12-18T13:26:49;8.40;;;4.57;;
22894;SDS011;11614;52.494;6.976;2022-12-18T13:29:40;10.17;;;4.70;;
22894;SDS011;11614;52.494;6.976;2022-12-18T13:32:21;11.87;;;6.00;;
22894;SDS011;11614;52.494;6.976;2022-12-18T13:34:48;11.70;;;6.70;;
22894;SDS011;11614;52.494;6.976;2022-12-18T13:39:58;12.07;;;6.23;;
22894;SDS011;11614;52.494;6.976;2022-12-18T13:48:00;11.60;;;6.13;;
22894;SDS011;11614;52.494;6.976;2022-12-18T13:50:26;20.20;;;9.40;;
22894;SDS011;11614;52.494;6.976;2022-12-18T13:52:53;21.50;;;10.37;;
22894;SDS011;11614;52.494;6.976;2022-12-18T13:55:19;14.30;;;7.53;;
22894;SDS011;11614;52.494;6.976;2022-12-18T13:57:46;10.53;;;5.17;;
22894;SDS011;11614;52.494;6.976;2022-12-18T14:00:25;10.70;;;5.40;;
22894;SDS011;11614;52.494;6.976;2022-12-18T14:02:53;13.57;;;5.37;;
22894;SDS011;11614;52.494;6.976;2022-12-18T14:08:00;5.70;;;2.57;;
22894;SDS011;11614;52.494;6.976;2022-12-18T14:10:26;14.03;;;5.93;;
22894;SDS011;11614;52.494;6.976;2022-12-18T14:12:52;13.60;;;7.10;;
22894;SDS011;11614;52.494;6.976;2022-12-18T14:18:09;13.57;;;5.57;;
22894;SDS011;11614;52.494;6.976;2022-12-18T14:20:40;14.87;;;5.53;;
22894;SDS011;11614;52.494;6.976;2022-12-18T14:23:24;14.60;;;6.93;;
22894;SDS011;11614;52.494;6.976;2022-12-18T14:25:51;15.13;;;6.67;;
22894;SDS011;11614;52.494;6.976;2022-12-18T14:28:17;68.80;;;29.43;;
22894;SDS011;11614;52.494;6.976;2022-12-18T14:30:44;18.77;;;9.03;;
22894;SDS011;11614;52.494;6.976;2022-12-18T14:33:14;11.73;;;6.50;;
22894;SDS011;11614;52.494;6.976;2022-12-18T14:35:41;16.63;;;9.17;;
22894;SDS011;11614;52.494;6.976;2022-12-18T14:40:53;15.13;;;7.63;;
22894;SDS011;11614;52.494;6.976;2022-12-18T14:43:19;12.37;;;5.60;;
22894;SDS011;11614;52.494;6.976;2022-12-18T14:45:45;15.87;;;7.00;;
22894;SDS011;11614;52.494;6.976;2022-12-18T14:50:37;15.73;;;6.97;;
22894;SDS011;11614;52.494;6.976;2022-12-18T14:53:03;17.33;;;7.60;;
22894;SDS011;11614;52.494;6.976;2022-12-18T14:55:32;18.13;;;7.60;;
22894;SDS011;11614;52.494;6.976;2022-12-18T14:57:58;16.63;;;6.87;;
22894;SDS011;11614;52.494;6.976;2022-12-18T15:00:24;11.63;;;4.10;;
22894;SDS011;11614;52.494;6.976;2022-12-18T15:02:52;14.10;;;5.57;;
22894;SDS011;11614;52.494;6.976;2022-12-18T15:05:26;82.23;;;32.53;;
22894;SDS011;11614;52.494;6.976;2022-12-18T15:07:53;37.10;;;14.27;;
22894;SDS011;11614;52.494;6.976;2022-12-18T15:12:47;11.87;;;5.20;;
22894;SDS011;11614;52.494;6.976;2022-12-18T15:18:03;21.43;;;11.27;;
22894;SDS011;11614;52.494;6.976;2022-12-18T15:20:32;21.40;;;12.50;;
22894;SDS011;11614;52.494;6.976;2022-12-18T15:23:04;24.13;;;15.50;;
22894;SDS011;11614;52.494;6.976;2022-12-18T15:25:39;26.60;;;15.53;;
22894;SDS011;11614;52.494;6.976;2022-12-18T15:28:19;22.83;;;10.57;;
22894;SDS011;11614;52.494;6.976;2022-12-18T15:33:26;12.37;;;7.00;;
22894;SDS011;11614;52.494;6.976;2022-12-18T15:35:56;28.57;;;14.53;;
22894;SDS011;11614;52.494;6.976;2022-12-18T15:38:22;12.80;;;5.87;;
22894;SDS011;11614;52.494;6.976;2022-12-18T15:40:48;15.77;;;5.47;;
22894;SDS011;11614;52.494;6.976;2022-12-18T15:43:14;22.97;;;10.97;;
22894;SDS011;11614;52.494;6.976;2022-12-18T15:46:00;13.77;;;4.97;;
22894;SDS011;11614;52.494;6.976;2022-12-18T15:48:26;16.87;;;8.23;;
22894;SDS011;11614;52.494;6.976;2022-12-18T15:50:52;14.47;;;6.87;;
22894;SDS011;11614;52.494;6.976;2022-12-18T15:53:20;14.57;;;7.53;;
22894;SDS011;11614;52.494;6.976;2022-12-18T15:55:46;17.17;;;6.67;;
22894;SDS011;11614;52.494;6.976;2022-12-18T15:58:30;24.17;;;10.70;;
22894;SDS011;11614;52.494;6.976;2022-12-18T16:00:57;25.00;;;13.10;;
22894;SDS011;11614;52.494;6.976;2022-12-18T16:03:24;18.03;;;8.53;;
22894;SDS011;11614;52.494;6.976;2022-12-18T16:05:50;16.83;;;7.93;;
22894;SDS011;11614;52.494;6.976;2022-12-18T16:08:16;22.67;;;10.53;;
22894;SDS011;11614;52.494;6.976;2022-12-18T16:10:42;16.47;;;8.13;;
22894;SDS011;11614;52.494;6.976;2022-12-18T16:13:11;18.60;;;8.77;;
22894;SDS011;11614;52.494;6.976;2022-12-18T16:15:38;14.50;;;6.80;;
22894;SDS011;11614;52.494;6.976;2022-12-18T16:18:04;24.23;;;9.30;;
22894;SDS011;11614;52.494;6.976;2022-12-18T16:20:30;19.27;;;8.40;;
22894;SDS011;11614;52.494;6.976;2022-12-18T16:22:56;23.43;;;9.73;;
22894;SDS011;11614;52.494;6.976;2022-12-18T16:25:23;33.90;;;16.30;;